NCAR-RAP Real-Time Weather Data

Output produced by METARs form (23 February 2020  01:52 UTC)
found at http://weather.rap.ucar.edu/surface/
 
KLIT 230053Z 16005KT 10SM SCT110 BKN250 08/M02 A3028 RMK AO2 SLP258 T00781017
KLIT 222353Z 14008KT 10SM SCT110 BKN250 09/M04 A3027 RMK AO2 SLP255 T00891039 10122 20078 58019
KLIT 222253Z 19008KT 10SM BKN110 BKN250 11/M06 A3029 RMK AO2 SLP263 T01111061
KLIT 222153Z 14009KT 10SM BKN150 BKN250 12/M06 A3031 RMK AO2 SLP267 T01171061
KLIT 222053Z VRB03KT 10SM SCT150 BKN250 12/M06 A3033 RMK AO2 SLP273 T01171061 56039
KLIT 221953Z 17006KT 10SM SCT150 BKN250 11/M06 A3036 RMK AO2 SLP285 T01061061
KLIT 221853Z 16007KT 10SM SCT150 BKN250 09/M07 A3041 RMK AO2 SLP301 T00941067
KLIT 221753Z 00000KT 10SM SCT130 BKN250 08/M07 A3044 RMK AO2 SLP314 T00781067 10078 21050 58021
KLIT 221653Z 21004KT 10SM FEW130 SCT250 06/M05 A3048 RMK AO2 SLP326 T00611050
KLIT 221553Z 23007KT 10SM BKN250 04/M03 A3050 RMK AO2 SLP333 T00441033
KLIT 221453Z 00000KT 10SM FEW150 BKN250 01/M03 A3051 RMK AO2 SLP335 T00061033 53005
KLIT 221353Z 00000KT 10SM SCT150 BKN250 M03/M04 A3049 RMK AO2 SLP331 T10281039
KLIT 221253Z 00000KT 10SM FEW150 FEW250 M05/M06 A3049 RMK AO2 SLP331 I1000 T10501061
KLIT 221153Z 25005KT 10SM FEW120 M04/M06 A3049 RMK AO2 SLP330 I1000 I6000 T10441056 11011 21050 53000
KLIT 221053Z 11003KT 10SM CLR M04/M06 A3048 RMK AO2 SLP325 I1000 T10441061
KLIT 220953Z 24003KT 10SM CLR M04/M05 A3048 RMK AO2 SLP326 I1000 T10391050
KLIT 220853Z 00000KT 10SM CLR M03/M04 A3049 RMK AO2 SLP330 T10331044 56013
KLIT 220753Z 00000KT 10SM CLR M03/M04 A3050 RMK AO2 SLP332 T10281044
KLIT 220653Z 00000KT 10SM CLR M03/M05 A3052 RMK AO2 SLP339 T10331050
KLIT 220553Z 00000KT 10SM FEW150 M02/M05 A3053 RMK AO2 SLP343 T10171050 10028 21017 400671044 58006
KLIT 220453Z 00000KT 10SM FEW250 M01/M05 A3055 RMK AO2 SLP350 T10111050
KLIT 220353Z 00000KT 10SM FEW250 00/M06 A3055 RMK AO2 SLP351 T00001056
KLIT 220253Z 11003KT 10SM FEW250 00/M05 A3055 RMK AO2 SLP349 T00001050 56009
KLIT 220153Z 15003KT 10SM SCT250 00/M06 A3055 RMK AO2 SLP351 T00001056
KLIT 220053Z 13005KT 10SM FEW250 01/M07 A3056 RMK AO2 SLP354 T00111067
KLIT 212353Z 14006KT 10SM FEW250 03/M07 A3057 RMK AO2 SLP358 T00281067 10067 20028 56016
KLIT 212253Z 11005KT 10SM CLR 06/M10 A3058 RMK AO2 SLP358 T00561100
KLIT 212153Z 09006KT 10SM CLR 06/M12 A3059 RMK AO2 SLP364 T00561117
KLIT 212053Z VRB04KT 10SM CLR 06/M11 A3062 RMK AO2 SLP375 T00561111 56036
KLIT 211953Z 28005KT 10SM CLR 04/M13 A3066 RMK AO2 SLP385 T00441128
KLIT 211853Z VRB04KT 10SM CLR 03/M12 A3069 RMK AO2 SLP398 T00331117
KLIT 211753Z 02006KT 10SM CLR 03/M12 A3073 RMK AO2 SLP410 T00281117 10028 21044 58005
KLIT 211653Z VRB04KT 10SM CLR 01/M11 A3074 RMK AO2 SLP416 T00111111
KLIT 211553Z 06006KT 10SM CLR 00/M11 A3075 RMK AO2 SLP417 T00001106
KLIT 211453Z 03009KT 10SM CLR M01/M11 A3075 RMK AO2 SLP416 T10111106 53016
KLIT 211353Z 02010KT 10SM CLR M03/M11 A3073 RMK AO2 SLP411 T10281106
KLIT 211253Z 02009KT 10SM CLR M04/M10 A3071 RMK AO2 SLP404 T10391100
KLIT 211153Z 01007KT 10SM CLR M04/M10 A3070 RMK AO2 SLP400 70004 T10391100 10017 21039 53007
KLIT 211053Z 01007KT 10SM CLR M03/M09 A3069 RMK AO2 SLP398 T10331094
KLIT 210953Z 02006KT 10SM CLR M02/M09 A3068 RMK AO2 SLP393 T10221094
KLIT 210853Z 02007KT 10SM CLR M01/M09 A3068 RMK AO2 SLP394 T10111089 51004
KLIT 210753Z 01006KT 10SM CLR M01/M08 A3068 RMK AO2 SLP394 T10061083
KLIT 210653Z 01010KT 10SM CLR 01/M08 A3068 RMK AO2 SLP393 T00061078
KLIT 210553Z 01009G19KT 10SM CLR 02/M06 A3067 RMK AO2 SLP390 T00171061 10061 20011 400830011 51012
KLIT 210453Z 01009KT 10SM CLR 02/M04 A3066 RMK AO2 SLP386 T00221044
KLIT 210353Z 01012KT 10SM FEW055 03/M04 A3065 RMK AO2 SLP383 T00281039
KLIT 210253Z 36008KT 10SM FEW055 03/M04 A3063 RMK AO2 SLP377 T00331039 51030
KLIT 210153Z 01006KT 10SM SCT060 03/M04 A3060 RMK AO2 SLP368 T00331039